sensor_id;sensor_type;location;lat;lon;timestamp;temperature;humidity
16999;DHT22;10211;49.476;11.010;2022-12-18T00:01:02;-11.90;99.90
16999;DHT22;10211;49.476;11.010;2022-12-18T00:03:32;-11.90;99.90
16999;DHT22;10211;49.476;11.010;2022-12-18T00:05:58;-11.90;99.90
16999;DHT22;10211;49.476;11.010;2022-12-18T00:08:25;-11.80;99.90
16999;DHT22;10211;49.476;11.010;2022-12-18T00:10:52;-11.90;99.90
16999;DHT22;10211;49.476;11.010;2022-12-18T00:13:21;-11.80;99.90
16999;DHT22;10211;49.476;11.010;2022-12-18T00:15:47;-11.60;99.90
16999;DHT22;10211;49.476;11.010;2022-12-18T00:18:14;-11.80;99.90
16999;DHT22;10211;49.476;11.010;2022-12-18T00:20:41;-11.80;99.90
16999;DHT22;10211;49.476;11.010;2022-12-18T00:23:07;-11.70;99.90
16999;DHT22;10211;49.476;11.010;2022-12-18T00:25:34;-11.70;99.90
16999;DHT22;10211;49.476;11.010;2022-12-18T00:28:03;-11.70;99.90
16999;DHT22;10211;49.476;11.010;2022-12-18T00:30:31;-11.70;99.90
16999;DHT22;10211;49.476;11.010;2022-12-18T00:32:58;-11.70;99.90
16999;DHT22;10211;49.476;11.010;2022-12-18T00:35:26;-11.80;99.90
16999;DHT22;10211;49.476;11.010;2022-12-18T00:37:53;-11.80;99.90
16999;DHT22;10211;49.476;11.010;2022-12-18T00:40:19;-11.90;99.90
16999;DHT22;10211;49.476;11.010;2022-12-18T00:42:46;-12.00;99.90
16999;DHT22;10211;49.476;11.010;2022-12-18T00:45:25;-11.90;99.90
16999;DHT22;10211;49.476;11.010;2022-12-18T00:47:54;-11.70;99.90
16999;DHT22;10211;49.476;11.010;2022-12-18T00:50:22;-12.30;99.90
16999;DHT22;10211;49.476;11.010;2022-12-18T00:52:49;-12.30;99.90
16999;DHT22;10211;49.476;11.010;2022-12-18T00:55:16;-12.20;99.90
16999;DHT22;10211;49.476;11.010;2022-12-18T00:57:43;-12.30;99.90
16999;DHT22;10211;49.476;11.010;2022-12-18T01:00:14;-12.30;99.90
16999;DHT22;10211;49.476;11.010;2022-12-18T01:02:42;-12.30;99.90
16999;DHT22;10211;49.476;11.010;2022-12-18T01:05:21;-12.30;99.90
16999;DHT22;10211;49.476;11.010;2022-12-18T01:07:47;-12.40;99.90
16999;DHT22;10211;49.476;11.010;2022-12-18T01:10:14;-12.30;99.90
16999;DHT22;10211;49.476;11.010;2022-12-18T01:12:41;-12.20;99.90
16999;DHT22;10211;49.476;11.010;2022-12-18T01:15:10;-12.40;99.90
16999;DHT22;10211;49.476;11.010;2022-12-18T01:17:38;-12.30;99.90
16999;DHT22;10211;49.476;11.010;2022-12-18T01:20:06;-12.20;99.90
16999;DHT22;10211;49.476;11.010;2022-12-18T01:22:35;-12.20;99.90
16999;DHT22;10211;49.476;11.010;2022-12-18T01:25:03;-12.10;99.90
16999;DHT22;10211;49.476;11.010;2022-12-18T01:27:31;-12.10;99.90
16999;DHT22;10211;49.476;11.010;2022-12-18T01:29:57;-12.00;99.90
16999;DHT22;10211;49.476;11.010;2022-12-18T01:32:25;-11.90;99.90
16999;DHT22;10211;49.476;11.010;2022-12-18T01:34:51;-11.70;99.90
16999;DHT22;10211;49.476;11.010;2022-12-18T01:37:18;-11.70;99.90
16999;DHT22;10211;49.476;11.010;2022-12-18T01:39:46;-11.70;99.90
16999;DHT22;10211;49.476;11.010;2022-12-18T01:42:15;-11.60;99.90
16999;DHT22;10211;49.476;11.010;2022-12-18T01:44:55;-11.50;99.90
16999;DHT22;10211;49.476;11.010;2022-12-18T01:47:26;-11.40;99.90
16999;DHT22;10211;49.476;11.010;2022-12-18T01:49:55;-11.30;99.90
16999;DHT22;10211;49.476;11.010;2022-12-18T01:52:24;-11.10;99.90
16999;DHT22;10211;49.476;11.010;2022-12-18T01:54:53;-11.00;99.90
16999;DHT22;10211;49.476;11.010;2022-12-18T01:57:22;-10.90;99.90
16999;DHT22;10211;49.476;11.010;2022-12-18T01:59:52;-10.80;99.90
16999;DHT22;10211;49.476;11.010;2022-12-18T02:02:20;-10.70;99.90
16999;DHT22;10211;49.476;11.010;2022-12-18T02:04:46;-10.60;99.90
16999;DHT22;10211;49.476;11.010;2022-12-18T02:07:20;-10.40;99.90
16999;DHT22;10211;49.476;11.010;2022-12-18T02:09:54;-10.30;99.90
16999;DHT22;10211;49.476;11.010;2022-12-18T02:12:29;-10.20;99.90
16999;DHT22;10211;49.476;11.010;2022-12-18T02:15:02;-10.00;99.90
16999;DHT22;10211;49.476;11.010;2022-12-18T02:17:36;-9.90;99.90
16999;DHT22;10211;49.476;11.010;2022-12-18T02:20:11;-9.70;99.90
16999;DHT22;10211;49.476;11.010;2022-12-18T02:22:48;-9.60;99.90
16999;DHT22;10211;49.476;11.010;2022-12-18T02:25:30;-9.50;99.90
16999;DHT22;10211;49.476;11.010;2022-12-18T02:28:04;-9.40;99.90
16999;DHT22;10211;49.476;11.010;2022-12-18T02:30:33;-9.30;99.90
16999;DHT22;10211;49.476;11.010;2022-12-18T02:33:04;-9.20;99.90
16999;DHT22;10211;49.476;11.010;2022-12-18T02:35:31;-9.10;99.90
16999;DHT22;10211;49.476;11.010;2022-12-18T02:37:58;-9.00;99.90
16999;DHT22;10211;49.476;11.010;2022-12-18T02:40:27;-8.90;99.90
16999;DHT22;10211;49.476;11.010;2022-12-18T02:42:55;-8.80;99.90
16999;DHT22;10211;49.476;11.010;2022-12-18T02:45:23;-8.70;99.90
16999;DHT22;10211;49.476;11.010;2022-12-18T02:47:50;-8.70;99.90
16999;DHT22;10211;49.476;11.010;2022-12-18T02:50:22;-8.60;99.90
16999;DHT22;10211;49.476;11.010;2022-12-18T02:52:58;-8.50;99.90
16999;DHT22;10211;49.476;11.010;2022-12-18T02:55:41;-8.40;99.90
16999;DHT22;10211;49.476;11.010;2022-12-18T02:58:15;-8.30;99.90
16999;DHT22;10211;49.476;11.010;2022-12-18T03:00:50;-8.20;99.90
16999;DHT22;10211;49.476;11.010;2022-12-18T03:03:22;-8.20;99.90
16999;DHT22;10211;49.476;11.010;2022-12-18T03:05:53;-8.10;99.90
16999;DHT22;10211;49.476;11.010;2022-12-18T03:08:23;-8.00;99.90
16999;DHT22;10211;49.476;11.010;2022-12-18T03:10:56;-7.90;99.90
16999;DHT22;10211;49.476;11.010;2022-12-18T03:13:26;-7.90;99.90
16999;DHT22;10211;49.476;11.010;2022-12-18T03:15:56;-7.80;99.90
16999;DHT22;10211;49.476;11.010;2022-12-18T03:18:27;-7.70;99.90
16999;DHT22;10211;49.476;11.010;2022-12-18T03:20:58;-7.70;99.90
16999;DHT22;10211;49.476;11.010;2022-12-18T03:23:28;-7.60;99.90
16999;DHT22;10211;49.476;11.010;2022-12-18T03:25:58;-7.60;99.90
16999;DHT22;10211;49.476;11.010;2022-12-18T03:28:30;-7.50;99.90
16999;DHT22;10211;49.476;11.010;2022-12-18T03:31:01;-7.50;99.90
16999;DHT22;10211;49.476;11.010;2022-12-18T03:33:31;-7.40;99.90
16999;DHT22;10211;49.476;11.010;2022-12-18T03:36:01;-7.40;99.90
16999;DHT22;10211;49.476;11.010;2022-12-18T03:38:28;-7.30;99.90
16999;DHT22;10211;49.476;11.010;2022-12-18T03:41:00;-7.30;99.90
16999;DHT22;10211;49.476;11.010;2022-12-18T03:43:37;-7.30;99.90
16999;DHT22;10211;49.476;11.010;2022-12-18T03:46:12;-7.20;99.90
16999;DHT22;10211;49.476;11.010;2022-12-18T03:48:45;-7.20;99.90
16999;DHT22;10211;49.476;11.010;2022-12-18T03:51:18;-7.10;99.90
16999;DHT22;10211;49.476;11.010;2022-12-18T03:53:50;-7.10;99.90
16999;DHT22;10211;49.476;11.010;2022-12-18T03:56:21;-7.00;99.90
16999;DHT22;10211;49.476;11.010;2022-12-18T03:58:50;-7.00;99.90
16999;DHT22;10211;49.476;11.010;2022-12-18T04:01:22;-7.00;99.90
16999;DHT22;10211;49.476;11.010;2022-12-18T04:03:51;-6.90;99.90
16999;DHT22;10211;49.476;11.010;2022-12-18T04:06:18;-6.90;99.90
16999;DHT22;10211;49.476;11.010;2022-12-18T04:08:46;-6.90;99.90
16999;DHT22;10211;49.476;11.010;2022-12-18T04:11:14;-6.90;99.90
16999;DHT22;10211;49.476;11.010;2022-12-18T04:13:42;-6.90;99.90
16999;DHT22;10211;49.476;11.010;2022-12-18T04:16:09;-6.80;99.90
16999;DHT22;10211;49.476;11.010;2022-12-18T04:18:38;-6.80;99.90
16999;DHT22;10211;49.476;11.010;2022-12-18T04:21:05;-6.90;99.90
16999;DHT22;10211;49.476;11.010;2022-12-18T04:23:31;-7.00;99.90
16999;DHT22;10211;49.476;11.010;2022-12-18T04:25:58;-7.10;99.90
16999;DHT22;10211;49.476;11.010;2022-12-18T04:28:25;-7.00;99.90
16999;DHT22;10211;49.476;11.010;2022-12-18T04:30:51;-7.10;99.90
16999;DHT22;10211;49.476;11.010;2022-12-18T04:33:18;-7.20;99.90
16999;DHT22;10211;49.476;11.010;2022-12-18T04:35:47;-7.30;99.90
16999;DHT22;10211;49.476;11.010;2022-12-18T04:38:13;-7.30;99.90
16999;DHT22;10211;49.476;11.010;2022-12-18T04:40:40;-7.30;99.90
16999;DHT22;10211;49.476;11.010;2022-12-18T04:43:07;-7.40;99.90
16999;DHT22;10211;49.476;11.010;2022-12-18T04:45:34;-7.40;99.90
16999;DHT22;10211;49.476;11.010;2022-12-18T04:48:02;-7.30;99.90
16999;DHT22;10211;49.476;11.010;2022-12-18T04:50:29;-7.30;99.90
16999;DHT22;10211;49.476;11.010;2022-12-18T04:52:57;-7.30;99.90
16999;DHT22;10211;49.476;11.010;2022-12-18T04:55:24;-7.20;99.90
16999;DHT22;10211;49.476;11.010;2022-12-18T04:57:52;-7.20;99.90
16999;DHT22;10211;49.476;11.010;2022-12-18T05:00:19;-7.20;99.90
16999;DHT22;10211;49.476;11.010;2022-12-18T05:02:46;-7.20;99.90
16999;DHT22;10211;49.476;11.010;2022-12-18T05:05:13;-7.20;99.90
16999;DHT22;10211;49.476;11.010;2022-12-18T05:07:40;-7.20;99.90
16999;DHT22;10211;49.476;11.010;2022-12-18T05:10:08;-7.10;99.90
16999;DHT22;10211;49.476;11.010;2022-12-18T05:12:36;-7.10;99.90
16999;DHT22;10211;49.476;11.010;2022-12-18T05:15:23;-7.00;99.90
16999;DHT22;10211;49.476;11.010;2022-12-18T05:17:50;-7.00;99.90
16999;DHT22;10211;49.476;11.010;2022-12-18T05:20:17;-6.90;99.90
16999;DHT22;10211;49.476;11.010;2022-12-18T05:22:44;-6.80;99.90
16999;DHT22;10211;49.476;11.010;2022-12-18T05:25:12;-6.70;99.90
16999;DHT22;10211;49.476;11.010;2022-12-18T05:27:39;-6.60;99.90
16999;DHT22;10211;49.476;11.010;2022-12-18T05:30:07;-6.60;99.90
16999;DHT22;10211;49.476;11.010;2022-12-18T05:32:34;-6.50;99.90
16999;DHT22;10211;49.476;11.010;2022-12-18T05:35:01;-6.50;99.90
16999;DHT22;10211;49.476;11.010;2022-12-18T05:37:30;-6.40;99.90
16999;DHT22;10211;49.476;11.010;2022-12-18T05:39:57;-6.40;99.90
16999;DHT22;10211;49.476;11.010;2022-12-18T05:42:25;-6.40;99.90
16999;DHT22;10211;49.476;11.010;2022-12-18T05:44:52;-6.40;99.90
16999;DHT22;10211;49.476;11.010;2022-12-18T05:47:19;-6.40;99.90
16999;DHT22;10211;49.476;11.010;2022-12-18T05:49:46;-6.40;99.90
16999;DHT22;10211;49.476;11.010;2022-12-18T05:52:12;-6.40;99.90
16999;DHT22;10211;49.476;11.010;2022-12-18T05:54:39;-6.40;99.90
16999;DHT22;10211;49.476;11.010;2022-12-18T05:57:06;-6.40;99.90
16999;DHT22;10211;49.476;11.010;2022-12-18T05:59:37;-6.40;99.90
16999;DHT22;10211;49.476;11.010;2022-12-18T06:02:05;-6.40;99.90
16999;DHT22;10211;49.476;11.010;2022-12-18T06:04:32;-6.40;99.90
16999;DHT22;10211;49.476;11.010;2022-12-18T06:06:59;-6.40;99.90
16999;DHT22;10211;49.476;11.010;2022-12-18T06:09:26;-6.40;99.90
16999;DHT22;10211;49.476;11.010;2022-12-18T06:11:52;-6.40;99.90
16999;DHT22;10211;49.476;11.010;2022-12-18T06:14:19;-6.40;99.90
16999;DHT22;10211;49.476;11.010;2022-12-18T06:16:47;-6.40;99.90
16999;DHT22;10211;49.476;11.010;2022-12-18T06:19:16;-6.40;99.90
16999;DHT22;10211;49.476;11.010;2022-12-18T06:21:43;-6.40;99.90
16999;DHT22;10211;49.476;11.010;2022-12-18T06:24:10;-6.30;99.90
16999;DHT22;10211;49.476;11.010;2022-12-18T06:26:37;-6.40;99.90
16999;DHT22;10211;49.476;11.010;2022-12-18T06:29:05;-6.30;99.90
16999;DHT22;10211;49.476;11.010;2022-12-18T06:31:32;-6.30;99.90
16999;DHT22;10211;49.476;11.010;2022-12-18T06:34:02;-6.40;99.90
16999;DHT22;10211;49.476;11.010;2022-12-18T06:36:32;-6.40;99.90
16999;DHT22;10211;49.476;11.010;2022-12-18T06:38:59;-6.40;99.90
16999;DHT22;10211;49.476;11.010;2022-12-18T06:41:26;-6.40;99.90
16999;DHT22;10211;49.476;11.010;2022-12-18T06:43:53;-6.40;99.90
16999;DHT22;10211;49.476;11.010;2022-12-18T06:46:20;-6.30;99.90
16999;DHT22;10211;49.476;11.010;2022-12-18T06:48:48;-6.30;99.90
16999;DHT22;10211;49.476;11.010;2022-12-18T06:51:18;-6.30;99.90
16999;DHT22;10211;49.476;11.010;2022-12-18T06:53:45;-6.20;99.90
16999;DHT22;10211;49.476;11.010;2022-12-18T06:56:12;-6.20;99.90
16999;DHT22;10211;49.476;11.010;2022-12-18T06:58:39;-6.20;99.90
16999;DHT22;10211;49.476;11.010;2022-12-18T07:01:08;-6.20;99.90
16999;DHT22;10211;49.476;11.010;2022-12-18T07:03:35;-6.20;99.90
16999;DHT22;10211;49.476;11.010;2022-12-18T07:06:03;-6.10;99.90
16999;DHT22;10211;49.476;11.010;2022-12-18T07:08:32;-6.10;99.90
16999;DHT22;10211;49.476;11.010;2022-12-18T07:10:59;-6.10;99.90
16999;DHT22;10211;49.476;11.010;2022-12-18T07:13:25;-6.10;99.90
16999;DHT22;10211;49.476;11.010;2022-12-18T07:15:52;-6.10;99.90
16999;DHT22;10211;49.476;11.010;2022-12-18T07:18:19;-6.00;99.90
16999;DHT22;10211;49.476;11.010;2022-12-18T07:20:45;-5.90;99.90
16999;DHT22;10211;49.476;11.010;2022-12-18T07:23:12;-5.90;99.90
16999;DHT22;10211;49.476;11.010;2022-12-18T07:25:40;-5.90;99.90
16999;DHT22;10211;49.476;11.010;2022-12-18T07:28:07;-5.90;99.90
16999;DHT22;10211;49.476;11.010;2022-12-18T07:30:36;-5.90;99.90
16999;DHT22;10211;49.476;11.010;2022-12-18T07:33:03;-5.80;99.90
16999;DHT22;10211;49.476;11.010;2022-12-18T07:35:30;-5.80;99.90
16999;DHT22;10211;49.476;11.010;2022-12-18T07:37:57;-5.80;99.90
16999;DHT22;10211;49.476;11.010;2022-12-18T07:40:23;-5.70;99.90
16999;DHT22;10211;49.476;11.010;2022-12-18T07:42:51;-5.70;99.90
16999;DHT22;10211;49.476;11.010;2022-12-18T07:45:18;-5.90;99.90
16999;DHT22;10211;49.476;11.010;2022-12-18T07:47:45;-5.60;99.90
16999;DHT22;10211;49.476;11.010;2022-12-18T07:50:12;-5.60;99.90
16999;DHT22;10211;49.476;11.010;2022-12-18T07:52:38;-5.50;99.90
16999;DHT22;10211;49.476;11.010;2022-12-18T07:55:06;-5.40;99.90
16999;DHT22;10211;49.476;11.010;2022-12-18T07:57:33;-5.40;99.90
16999;DHT22;10211;49.476;11.010;2022-12-18T08:00:03;-5.30;99.90
16999;DHT22;10211;49.476;11.010;2022-12-18T08:02:30;-5.30;99.90
16999;DHT22;10211;49.476;11.010;2022-12-18T08:04:57;-5.20;99.90
16999;DHT22;10211;49.476;11.010;2022-12-18T08:07:24;-5.20;99.90
16999;DHT22;10211;49.476;11.010;2022-12-18T08:09:51;-5.10;99.90
16999;DHT22;10211;49.476;11.010;2022-12-18T08:12:18;-5.10;99.90
16999;DHT22;10211;49.476;11.010;2022-12-18T08:14:45;-4.90;99.90
16999;DHT22;10211;49.476;11.010;2022-12-18T08:17:14;-4.90;99.90
16999;DHT22;10211;49.476;11.010;2022-12-18T08:19:42;-4.80;99.90
16999;DHT22;10211;49.476;11.010;2022-12-18T08:22:08;-4.70;99.90
16999;DHT22;10211;49.476;11.010;2022-12-18T08:24:36;-4.60;99.90
16999;DHT22;10211;49.476;11.010;2022-12-18T08:27:02;-4.50;99.90
16999;DHT22;10211;49.476;11.010;2022-12-18T08:29:29;-4.40;99.90
16999;DHT22;10211;49.476;11.010;2022-12-18T08:31:57;-4.30;99.90
16999;DHT22;10211;49.476;11.010;2022-12-18T08:34:53;-4.30;99.90
16999;DHT22;10211;49.476;11.010;2022-12-18T08:37:20;-4.20;99.90
16999;DHT22;10211;49.476;11.010;2022-12-18T08:39:49;-4.10;99.90
16999;DHT22;10211;49.476;11.010;2022-12-18T08:42:16;-4.10;99.90
16999;DHT22;10211;49.476;11.010;2022-12-18T08:45:02;-4.00;99.90
16999;DHT22;10211;49.476;11.010;2022-12-18T08:47:29;-3.90;99.90
16999;DHT22;10211;49.476;11.010;2022-12-18T08:49:57;-3.90;99.90
16999;DHT22;10211;49.476;11.010;2022-12-18T08:52:24;-3.70;99.90
16999;DHT22;10211;49.476;11.010;2022-12-18T08:54:51;-3.70;99.90
16999;DHT22;10211;49.476;11.010;2022-12-18T08:57:17;-3.50;99.90
16999;DHT22;10211;49.476;11.010;2022-12-18T08:59:44;-3.40;99.90
16999;DHT22;10211;49.476;11.010;2022-12-18T09:02:11;-3.30;99.90
16999;DHT22;10211;49.476;11.010;2022-12-18T09:04:38;-3.30;99.90
16999;DHT22;10211;49.476;11.010;2022-12-18T09:07:07;-3.20;99.90
16999;DHT22;10211;49.476;11.010;2022-12-18T09:09:34;-3.10;99.90
16999;DHT22;10211;49.476;11.010;2022-12-18T09:12:02;-3.00;99.90
16999;DHT22;10211;49.476;11.010;2022-12-18T09:14:29;-2.90;99.90
16999;DHT22;10211;49.476;11.010;2022-12-18T09:16:56;-2.80;99.90
16999;DHT22;10211;49.476;11.010;2022-12-18T09:19:23;-2.80;99.90
16999;DHT22;10211;49.476;11.010;2022-12-18T09:21:49;-2.80;99.90
16999;DHT22;10211;49.476;11.010;2022-12-18T09:24:19;-2.80;99.90
16999;DHT22;10211;49.476;11.010;2022-12-18T09:26:46;-2.90;99.90
16999;DHT22;10211;49.476;11.010;2022-12-18T09:29:13;-2.80;99.90
16999;DHT22;10211;49.476;11.010;2022-12-18T09:31:43;-2.70;99.90
16999;DHT22;10211;49.476;11.010;2022-12-18T09:34:10;-2.60;99.90
16999;DHT22;10211;49.476;11.010;2022-12-18T09:36:37;-2.60;99.90
16999;DHT22;10211;49.476;11.010;2022-12-18T09:39:04;-2.50;99.90
16999;DHT22;10211;49.476;11.010;2022-12-18T09:41:42;-2.50;99.90
16999;DHT22;10211;49.476;11.010;2022-12-18T09:44:17;-2.40;99.90
16999;DHT22;10211;49.476;11.010;2022-12-18T09:46:48;-2.40;99.90
16999;DHT22;10211;49.476;11.010;2022-12-18T09:49:20;-2.30;99.90
16999;DHT22;10211;49.476;11.010;2022-12-18T09:51:52;-2.20;99.90
16999;DHT22;10211;49.476;11.010;2022-12-18T09:54:24;-2.00;99.90
16999;DHT22;10211;49.476;11.010;2022-12-18T09:56:53;-1.80;99.90
16999;DHT22;10211;49.476;11.010;2022-12-18T09:59:25;-1.60;99.90
16999;DHT22;10211;49.476;11.010;2022-12-18T10:01:53;-1.50;99.90
16999;DHT22;10211;49.476;11.010;2022-12-18T10:04:20;-1.30;99.90
16999;DHT22;10211;49.476;11.010;2022-12-18T10:06:52;-1.20;99.90
16999;DHT22;10211;49.476;11.010;2022-12-18T10:09:28;-1.00;99.90
16999;DHT22;10211;49.476;11.010;2022-12-18T10:12:04;-0.90;99.90
16999;DHT22;10211;49.476;11.010;2022-12-18T10:14:36;-0.80;99.90
16999;DHT22;10211;49.476;11.010;2022-12-18T10:17:15;-0.60;99.90
16999;DHT22;10211;49.476;11.010;2022-12-18T10:19:48;-0.70;99.90
16999;DHT22;10211;49.476;11.010;2022-12-18T10:22:35;-0.80;99.90
16999;DHT22;10211;49.476;11.010;2022-12-18T10:25:13;-1.00;99.90
16999;DHT22;10211;49.476;11.010;2022-12-18T10:27:43;-1.10;99.90
16999;DHT22;10211;49.476;11.010;2022-12-18T10:30:14;-1.00;99.90
16999;DHT22;10211;49.476;11.010;2022-12-18T10:32:41;-1.30;99.90
16999;DHT22;10211;49.476;11.010;2022-12-18T10:35:16;-1.20;99.90
16999;DHT22;10211;49.476;11.010;2022-12-18T10:38:00;-1.20;99.90
16999;DHT22;10211;49.476;11.010;2022-12-18T10:40:27;-1.10;99.90
16999;DHT22;10211;49.476;11.010;2022-12-18T10:43:05;-1.10;99.90
16999;DHT22;10211;49.476;11.010;2022-12-18T10:45:32;-1.00;99.90
16999;DHT22;10211;49.476;11.010;2022-12-18T10:48:00;-0.80;99.90
16999;DHT22;10211;49.476;11.010;2022-12-18T10:50:30;-0.70;99.90
16999;DHT22;10211;49.476;11.010;2022-12-18T10:52:59;-0.50;99.90
16999;DHT22;10211;49.476;11.010;2022-12-18T10:55:32;-0.20;99.90
16999;DHT22;10211;49.476;11.010;2022-12-18T10:58:22;0.10;99.90
16999;DHT22;10211;49.476;11.010;2022-12-18T11:01:06;0.40;99.90
16999;DHT22;10211;49.476;11.010;2022-12-18T11:03:35;0.60;99.90
16999;DHT22;10211;49.476;11.010;2022-12-18T11:06:05;1.70;99.90
16999;DHT22;10211;49.476;11.010;2022-12-18T11:08:33;2.40;99.90
16999;DHT22;10211;49.476;11.010;2022-12-18T11:11:00;2.60;99.90
16999;DHT22;10211;49.476;11.010;2022-12-18T11:13:29;2.40;99.90
16999;DHT22;10211;49.476;11.010;2022-12-18T11:15:57;2.50;99.90
16999;DHT22;10211;49.476;11.010;2022-12-18T11:18:28;1.90;99.90
16999;DHT22;10211;49.476;11.010;2022-12-18T11:20:57;1.30;99.90
16999;DHT22;10211;49.476;11.010;2022-12-18T11:23:27;0.80;99.90
16999;DHT22;10211;49.476;11.010;2022-12-18T11:25:56;0.90;99.90
16999;DHT22;10211;49.476;11.010;2022-12-18T11:28:34;0.70;99.90
16999;DHT22;10211;49.476;11.010;2022-12-18T11:31:20;0.50;99.90
16999;DHT22;10211;49.476;11.010;2022-12-18T11:33:54;0.90;99.90
16999;DHT22;10211;49.476;11.010;2022-12-18T11:36:22;0.90;99.90
16999;DHT22;10211;49.476;11.010;2022-12-18T11:38:52;0.90;99.90
16999;DHT22;10211;49.476;11.010;2022-12-18T11:41:25;0.80;99.90
16999;DHT22;10211;49.476;11.010;2022-12-18T11:44:22;0.40;99.90
16999;DHT22;10211;49.476;11.010;2022-12-18T11:46:52;0.20;99.90
16999;DHT22;10211;49.476;11.010;2022-12-18T11:49:25;0.20;99.90
16999;DHT22;10211;49.476;11.010;2022-12-18T11:52:00;-0.40;99.90
16999;DHT22;10211;49.476;11.010;2022-12-18T11:54:28;-0.80;99.90
16999;DHT22;10211;49.476;11.010;2022-12-18T11:56:58;-0.80;99.90
16999;DHT22;10211;49.476;11.010;2022-12-18T11:59:35;-0.80;99.90
16999;DHT22;10211;49.476;11.010;2022-12-18T12:02:19;-0.70;99.90
16999;DHT22;10211;49.476;11.010;2022-12-18T12:05:08;-0.50;99.90
16999;DHT22;10211;49.476;11.010;2022-12-18T12:07:44;-0.50;99.90
16999;DHT22;10211;49.476;11.010;2022-12-18T12:10:28;-0.50;99.90
16999;DHT22;10211;49.476;11.010;2022-12-18T12:13:16;-0.40;99.90
16999;DHT22;10211;49.476;11.010;2022-12-18T12:15:55;-0.30;99.90
16999;DHT22;10211;49.476;11.010;2022-12-18T12:18:31;0.10;99.90
16999;DHT22;10211;49.476;11.010;2022-12-18T12:21:04;0.50;99.90
16999;DHT22;10211;49.476;11.010;2022-12-18T12:23:39;0.70;99.90
16999;DHT22;10211;49.476;11.010;2022-12-18T12:26:11;0.50;99.90
16999;DHT22;10211;49.476;11.010;2022-12-18T12:28:58;0.40;99.90
16999;DHT22;10211;49.476;11.010;2022-12-18T12:31:39;0.40;99.90
16999;DHT22;10211;49.476;11.010;2022-12-18T12:34:15;0.40;99.90
16999;DHT22;10211;49.476;11.010;2022-12-18T12:36:54;0.30;99.90
16999;DHT22;10211;49.476;11.010;2022-12-18T12:39:28;0.20;99.90
16999;DHT22;10211;49.476;11.010;2022-12-18T12:41:57;0.30;99.90
16999;DHT22;10211;49.476;11.010;2022-12-18T12:44:44;0.20;99.90
16999;DHT22;10211;49.476;11.010;2022-12-18T12:47:17;0.10;99.90
16999;DHT22;10211;49.476;11.010;2022-12-18T12:49:46;-0.20;99.90
16999;DHT22;10211;49.476;11.010;2022-12-18T12:52:18;-0.10;99.90
16999;DHT22;10211;49.476;11.010;2022-12-18T12:54:48;-0.20;99.90
16999;DHT22;10211;49.476;11.010;2022-12-18T12:57:20;-0.20;99.90
16999;DHT22;10211;49.476;11.010;2022-12-18T12:59:54;-0.40;99.90
16999;DHT22;10211;49.476;11.010;2022-12-18T13:02:30;-0.50;99.90
16999;DHT22;10211;49.476;11.010;2022-12-18T13:05:04;-0.50;99.90
16999;DHT22;10211;49.476;11.010;2022-12-18T13:07:37;-0.60;99.90
16999;DHT22;10211;49.476;11.010;2022-12-18T13:10:31;-0.70;99.90
16999;DHT22;10211;49.476;11.010;2022-12-18T13:13:02;-0.70;99.90
16999;DHT22;10211;49.476;11.010;2022-12-18T13:15:32;-0.80;99.90
16999;DHT22;10211;49.476;11.010;2022-12-18T13:18:10;-0.80;99.90
16999;DHT22;10211;49.476;11.010;2022-12-18T13:20:41;-0.80;99.90
16999;DHT22;10211;49.476;11.010;2022-12-18T13:23:32;-0.80;99.90
16999;DHT22;10211;49.476;11.010;2022-12-18T13:26:00;-0.80;99.90
16999;DHT22;10211;49.476;11.010;2022-12-18T13:28:52;-0.80;99.90
16999;DHT22;10211;49.476;11.010;2022-12-18T13:34:36;-0.90;99.90
16999;DHT22;10211;49.476;11.010;2022-12-18T13:37:42;-0.90;99.90
16999;DHT22;10211;49.476;11.010;2022-12-18T13:43:30;-1.00;99.90
16999;DHT22;10211;49.476;11.010;2022-12-18T13:46:19;-1.10;99.90
16999;DHT22;10211;49.476;11.010;2022-12-18T13:48:56;-1.10;99.90
16999;DHT22;10211;49.476;11.010;2022-12-18T13:51:26;-1.20;99.90
16999;DHT22;10211;49.476;11.010;2022-12-18T13:53:54;-1.20;99.90
16999;DHT22;10211;49.476;11.010;2022-12-18T13:56:25;-1.20;99.90
16999;DHT22;10211;49.476;11.010;2022-12-18T13:59:16;-1.20;99.90
16999;DHT22;10211;49.476;11.010;2022-12-18T14:01:46;-1.30;99.90
16999;DHT22;10211;49.476;11.010;2022-12-18T14:04:23;-1.20;99.90
16999;DHT22;10211;49.476;11.010;2022-12-18T14:06:56;-1.30;99.90
16999;DHT22;10211;49.476;11.010;2022-12-18T14:09:27;-1.40;99.90
16999;DHT22;10211;49.476;11.010;2022-12-18T14:11:56;-1.50;99.90
16999;DHT22;10211;49.476;11.010;2022-12-18T14:14:37;-1.60;99.90
16999;DHT22;10211;49.476;11.010;2022-12-18T14:17:09;-1.70;99.90
16999;DHT22;10211;49.476;11.010;2022-12-18T14:19:37;-1.70;99.90
16999;DHT22;10211;49.476;11.010;2022-12-18T14:22:13;-1.80;99.90
16999;DHT22;10211;49.476;11.010;2022-12-18T14:24:41;-1.90;99.90
16999;DHT22;10211;49.476;11.010;2022-12-18T14:27:20;-1.90;99.90
16999;DHT22;10211;49.476;11.010;2022-12-18T14:29:47;-1.50;99.90
16999;DHT22;10211;49.476;11.010;2022-12-18T14:32:15;-2.00;99.90
16999;DHT22;10211;49.476;11.010;2022-12-18T14:34:44;-2.10;99.90
16999;DHT22;10211;49.476;11.010;2022-12-18T14:37:13;-2.10;99.90
16999;DHT22;10211;49.476;11.010;2022-12-18T14:39:40;-2.20;99.90
16999;DHT22;10211;49.476;11.010;2022-12-18T14:42:18;-2.20;99.90
16999;DHT22;10211;49.476;11.010;2022-12-18T14:44:44;-2.40;99.90
16999;DHT22;10211;49.476;11.010;2022-12-18T14:47:14;-2.40;99.90
16999;DHT22;10211;49.476;11.010;2022-12-18T14:49:42;-2.50;99.90
16999;DHT22;10211;49.476;11.010;2022-12-18T14:52:21;-2.50;99.90
16999;DHT22;10211;49.476;11.010;2022-12-18T14:54:49;-2.60;99.90
16999;DHT22;10211;49.476;11.010;2022-12-18T14:57:21;-2.70;99.90
16999;DHT22;10211;49.476;11.010;2022-12-18T14:59:48;-2.80;99.90
16999;DHT22;10211;49.476;11.010;2022-12-18T15:02:21;-2.90;99.90
16999;DHT22;10211;49.476;11.010;2022-12-18T15:04:59;-2.90;99.90
16999;DHT22;10211;49.476;11.010;2022-12-18T15:07:40;-3.00;99.90
16999;DHT22;10211;49.476;11.010;2022-12-18T15:10:11;-3.10;99.90
16999;DHT22;10211;49.476;11.010;2022-12-18T15:12:40;-3.10;99.90
16999;DHT22;10211;49.476;11.010;2022-12-18T15:18:13;-3.20;99.90
16999;DHT22;10211;49.476;11.010;2022-12-18T15:20:44;-3.30;99.90
16999;DHT22;10211;49.476;11.010;2022-12-18T15:23:18;-3.30;99.90
16999;DHT22;10211;49.476;11.010;2022-12-18T15:25:46;-3.40;99.90
16999;DHT22;10211;49.476;11.010;2022-12-18T15:28:18;-3.40;99.90
16999;DHT22;10211;49.476;11.010;2022-12-18T15:30:59;-3.40;99.90
16999;DHT22;10211;49.476;11.010;2022-12-18T15:33:27;-3.40;99.90
16999;DHT22;10211;49.476;11.010;2022-12-18T15:35:57;-3.50;99.90
16999;DHT22;10211;49.476;11.010;2022-12-18T15:38:25;-3.50;99.90
16999;DHT22;10211;49.476;11.010;2022-12-18T15:40:52;-3.60;99.90
16999;DHT22;10211;49.476;11.010;2022-12-18T15:43:20;-3.60;99.90
16999;DHT22;10211;49.476;11.010;2022-12-18T15:46:05;-3.60;99.90